sensor_id;sensor_type;location;lat;lon;timestamp;temperature;humidity
48860;DHT22;34679;51.436;-2.518;2023-05-02T00:00:12;10.50;99.90
48860;DHT22;34679;51.436;-2.518;2023-05-02T00:02:38;10.70;99.90
48860;DHT22;34679;51.436;-2.518;2023-05-02T00:05:05;10.70;99.90
48860;DHT22;34679;51.436;-2.518;2023-05-02T00:07:32;10.80;99.90
48860;DHT22;34679;51.436;-2.518;2023-05-02T00:09:58;10.80;99.90
48860;DHT22;34679;51.436;-2.518;2023-05-02T00:12:24;10.80;99.90
48860;DHT22;34679;51.436;-2.518;2023-05-02T00:14:50;10.80;99.90
48860;DHT22;34679;51.436;-2.518;2023-05-02T00:17:19;10.80;99.90
48860;DHT22;34679;51.436;-2.518;2023-05-02T00:19:45;10.70;99.90
48860;DHT22;34679;51.436;-2.518;2023-05-02T00:22:11;10.70;99.90
48860;DHT22;34679;51.436;-2.518;2023-05-02T00:24:37;10.60;99.90
48860;DHT22;34679;51.436;-2.518;2023-05-02T00:27:03;10.70;99.90
48860;DHT22;34679;51.436;-2.518;2023-05-02T00:29:29;10.70;99.90
48860;DHT22;34679;51.436;-2.518;2023-05-02T00:31:55;10.70;99.90
48860;DHT22;34679;51.436;-2.518;2023-05-02T00:34:22;10.70;99.90
48860;DHT22;34679;51.436;-2.518;2023-05-02T00:36:48;10.70;99.90
48860;DHT22;34679;51.436;-2.518;2023-05-02T00:39:14;10.70;99.90
48860;DHT22;34679;51.436;-2.518;2023-05-02T00:41:40;10.60;99.90
48860;DHT22;34679;51.436;-2.518;2023-05-02T00:44:05;10.60;99.90
48860;DHT22;34679;51.436;-2.518;2023-05-02T00:46:31;10.50;99.90
48860;DHT22;34679;51.436;-2.518;2023-05-02T00:48:57;10.50;99.90
48860;DHT22;34679;51.436;-2.518;2023-05-02T00:51:23;10.30;99.90
48860;DHT22;34679;51.436;-2.518;2023-05-02T00:53:49;10.30;99.90
48860;DHT22;34679;51.436;-2.518;2023-05-02T00:56:15;10.20;99.90
48860;DHT22;34679;51.436;-2.518;2023-05-02T00:58:41;10.20;99.90
48860;DHT22;34679;51.436;-2.518;2023-05-02T01:12:30;10.00;99.90
48860;DHT22;34679;51.436;-2.518;2023-05-02T01:14:58;10.00;99.90
48860;DHT22;34679;51.436;-2.518;2023-05-02T01:17:27;10.00;99.90
48860;DHT22;34679;51.436;-2.518;2023-05-02T01:19:59;10.00;99.90
48860;DHT22;34679;51.436;-2.518;2023-05-02T01:22:28;10.00;99.90
48860;DHT22;34679;51.436;-2.518;2023-05-02T01:27:54;10.00;99.90
48860;DHT22;34679;51.436;-2.518;2023-05-02T01:30:23;10.00;99.90
48860;DHT22;34679;51.436;-2.518;2023-05-02T01:32:51;10.00;99.90
48860;DHT22;34679;51.436;-2.518;2023-05-02T01:35:19;9.90;99.90
48860;DHT22;34679;51.436;-2.518;2023-05-02T01:37:46;9.90;99.90
48860;DHT22;34679;51.436;-2.518;2023-05-02T01:40:18;9.80;99.90
48860;DHT22;34679;51.436;-2.518;2023-05-02T01:42:49;9.80;99.90
48860;DHT22;34679;51.436;-2.518;2023-05-02T01:45:16;9.80;99.90
48860;DHT22;34679;51.436;-2.518;2023-05-02T01:47:43;9.70;99.90
48860;DHT22;34679;51.436;-2.518;2023-05-02T01:50:28;9.70;99.90
48860;DHT22;34679;51.436;-2.518;2023-05-02T01:52:54;9.70;99.90
48860;DHT22;34679;51.436;-2.518;2023-05-02T01:55:23;9.60;99.90
48860;DHT22;34679;51.436;-2.518;2023-05-02T01:57:51;9.60;99.90
48860;DHT22;34679;51.436;-2.518;2023-05-02T02:00:18;9.50;99.90
48860;DHT22;34679;51.436;-2.518;2023-05-02T02:02:47;9.50;99.90
48860;DHT22;34679;51.436;-2.518;2023-05-02T02:05:13;9.50;99.90
48860;DHT22;34679;51.436;-2.518;2023-05-02T02:07:41;9.50;99.90
48860;DHT22;34679;51.436;-2.518;2023-05-02T02:10:07;9.40;99.90
48860;DHT22;34679;51.436;-2.518;2023-05-02T02:12:48;9.50;99.90
48860;DHT22;34679;51.436;-2.518;2023-05-02T02:17:46;9.40;99.90
48860;DHT22;34679;51.436;-2.518;2023-05-02T02:20:14;9.40;99.90
48860;DHT22;34679;51.436;-2.518;2023-05-02T02:22:42;9.40;99.90
48860;DHT22;34679;51.436;-2.518;2023-05-02T02:25:16;9.40;99.90
48860;DHT22;34679;51.436;-2.518;2023-05-02T02:27:43;9.40;99.90
48860;DHT22;34679;51.436;-2.518;2023-05-02T02:30:09;9.40;99.90
48860;DHT22;34679;51.436;-2.518;2023-05-02T02:32:35;9.40;99.90
48860;DHT22;34679;51.436;-2.518;2023-05-02T02:35:01;9.40;99.90
48860;DHT22;34679;51.436;-2.518;2023-05-02T02:37:34;9.40;99.90
48860;DHT22;34679;51.436;-2.518;2023-05-02T02:40:11;9.40;99.90
48860;DHT22;34679;51.436;-2.518;2023-05-02T02:43:02;9.40;99.90
48860;DHT22;34679;51.436;-2.518;2023-05-02T02:53:44;9.20;99.90
48860;DHT22;34679;51.436;-2.518;2023-05-02T02:56:28;9.20;99.90
48860;DHT22;34679;51.436;-2.518;2023-05-02T02:59:19;9.20;99.90
48860;DHT22;34679;51.436;-2.518;2023-05-02T03:01:47;9.10;99.90
48860;DHT22;34679;51.436;-2.518;2023-05-02T03:04:19;9.10;99.90
48860;DHT22;34679;51.436;-2.518;2023-05-02T03:06:46;9.10;99.90
48860;DHT22;34679;51.436;-2.518;2023-05-02T03:09:15;9.10;99.90
48860;DHT22;34679;51.436;-2.518;2023-05-02T03:11:44;9.00;99.90
48860;DHT22;34679;51.436;-2.518;2023-05-02T03:14:12;9.00;99.90
48860;DHT22;34679;51.436;-2.518;2023-05-02T03:16:39;9.10;99.90
48860;DHT22;34679;51.436;-2.518;2023-05-02T03:19:05;9.00;99.90
48860;DHT22;34679;51.436;-2.518;2023-05-02T03:21:31;8.90;99.90
48860;DHT22;34679;51.436;-2.518;2023-05-02T03:24:02;8.90;99.90
48860;DHT22;34679;51.436;-2.518;2023-05-02T03:26:28;8.80;99.90
48860;DHT22;34679;51.436;-2.518;2023-05-02T03:28:55;8.80;99.90
48860;DHT22;34679;51.436;-2.518;2023-05-02T03:31:21;8.70;99.90
48860;DHT22;34679;51.436;-2.518;2023-05-02T03:33:47;8.60;99.90
48860;DHT22;34679;51.436;-2.518;2023-05-02T03:36:14;8.60;99.90
48860;DHT22;34679;51.436;-2.518;2023-05-02T03:38:39;8.50;99.90
48860;DHT22;34679;51.436;-2.518;2023-05-02T03:41:05;8.50;99.90
48860;DHT22;34679;51.436;-2.518;2023-05-02T03:43:31;8.50;99.90
48860;DHT22;34679;51.436;-2.518;2023-05-02T03:46:02;8.40;99.90
48860;DHT22;34679;51.436;-2.518;2023-05-02T03:48:28;8.40;99.90
48860;DHT22;34679;51.436;-2.518;2023-05-02T03:50:54;8.40;99.90
48860;DHT22;34679;51.436;-2.518;2023-05-02T03:53:19;8.40;99.90
48860;DHT22;34679;51.436;-2.518;2023-05-02T03:55:45;8.30;99.90
48860;DHT22;34679;51.436;-2.518;2023-05-02T03:58:11;8.30;99.90
48860;DHT22;34679;51.436;-2.518;2023-05-02T04:00:37;8.30;99.90
48860;DHT22;34679;51.436;-2.518;2023-05-02T04:03:03;8.30;99.90
48860;DHT22;34679;51.436;-2.518;2023-05-02T04:05:29;8.30;99.90
48860;DHT22;34679;51.436;-2.518;2023-05-02T04:07:56;8.40;99.90
48860;DHT22;34679;51.436;-2.518;2023-05-02T04:10:21;8.40;99.90
48860;DHT22;34679;51.436;-2.518;2023-05-02T04:12:47;8.40;99.90
48860;DHT22;34679;51.436;-2.518;2023-05-02T04:15:13;8.40;99.90
48860;DHT22;34679;51.436;-2.518;2023-05-02T04:17:39;8.40;99.90
48860;DHT22;34679;51.436;-2.518;2023-05-02T04:20:05;8.40;99.90
48860;DHT22;34679;51.436;-2.518;2023-05-02T04:22:32;8.40;99.90
48860;DHT22;34679;51.436;-2.518;2023-05-02T04:24:58;8.40;99.90
48860;DHT22;34679;51.436;-2.518;2023-05-02T04:27:23;8.40;99.90
48860;DHT22;34679;51.436;-2.518;2023-05-02T04:29:52;8.40;99.90
48860;DHT22;34679;51.436;-2.518;2023-05-02T04:32:18;8.50;99.90
48860;DHT22;34679;51.436;-2.518;2023-05-02T04:34:44;8.50;99.90
48860;DHT22;34679;51.436;-2.518;2023-05-02T04:37:10;8.40;99.90
48860;DHT22;34679;51.436;-2.518;2023-05-02T04:39:35;8.40;99.90
48860;DHT22;34679;51.436;-2.518;2023-05-02T04:42:02;8.30;99.90
48860;DHT22;34679;51.436;-2.518;2023-05-02T04:44:27;8.20;99.90
48860;DHT22;34679;51.436;-2.518;2023-05-02T04:46:53;8.30;99.90
48860;DHT22;34679;51.436;-2.518;2023-05-02T04:49:19;8.50;99.90
48860;DHT22;34679;51.436;-2.518;2023-05-02T04:51:44;8.70;99.90
48860;DHT22;34679;51.436;-2.518;2023-05-02T04:54:11;8.80;99.90
48860;DHT22;34679;51.436;-2.518;2023-05-02T04:56:37;8.90;99.90
48860;DHT22;34679;51.436;-2.518;2023-05-02T04:59:03;9.00;99.90
48860;DHT22;34679;51.436;-2.518;2023-05-02T05:01:28;9.10;99.90
48860;DHT22;34679;51.436;-2.518;2023-05-02T05:03:54;9.20;99.90
48860;DHT22;34679;51.436;-2.518;2023-05-02T05:06:20;9.20;99.90
48860;DHT22;34679;51.436;-2.518;2023-05-02T05:08:47;9.20;99.90
48860;DHT22;34679;51.436;-2.518;2023-05-02T05:11:13;9.30;99.90
48860;DHT22;34679;51.436;-2.518;2023-05-02T05:13:40;9.30;99.90
48860;DHT22;34679;51.436;-2.518;2023-05-02T05:16:06;9.30;99.90
48860;DHT22;34679;51.436;-2.518;2023-05-02T05:18:32;9.40;99.90
48860;DHT22;34679;51.436;-2.518;2023-05-02T05:21:05;9.50;99.90
48860;DHT22;34679;51.436;-2.518;2023-05-02T05:23:32;9.60;99.90
48860;DHT22;34679;51.436;-2.518;2023-05-02T05:26:07;9.70;99.90
48860;DHT22;34679;51.436;-2.518;2023-05-02T05:28:32;9.80;99.90
48860;DHT22;34679;51.436;-2.518;2023-05-02T05:31:04;9.80;99.90
48860;DHT22;34679;51.436;-2.518;2023-05-02T05:33:30;9.70;99.90
48860;DHT22;34679;51.436;-2.518;2023-05-02T05:35:56;9.80;99.90
48860;DHT22;34679;51.436;-2.518;2023-05-02T05:38:27;9.70;99.90
48860;DHT22;34679;51.436;-2.518;2023-05-02T05:40:53;9.80;99.90
48860;DHT22;34679;51.436;-2.518;2023-05-02T05:43:18;9.80;99.90
48860;DHT22;34679;51.436;-2.518;2023-05-02T05:45:44;9.80;99.90
48860;DHT22;34679;51.436;-2.518;2023-05-02T05:48:10;9.90;99.90
48860;DHT22;34679;51.436;-2.518;2023-05-02T05:50:35;10.40;99.90
48860;DHT22;34679;51.436;-2.518;2023-05-02T05:53:01;10.80;99.90
48860;DHT22;34679;51.436;-2.518;2023-05-02T05:55:27;11.00;99.90
48860;DHT22;34679;51.436;-2.518;2023-05-02T05:57:53;10.60;99.90
48860;DHT22;34679;51.436;-2.518;2023-05-02T06:00:19;10.60;99.90
48860;DHT22;34679;51.436;-2.518;2023-05-02T06:02:44;10.70;99.90
48860;DHT22;34679;51.436;-2.518;2023-05-02T06:05:10;10.70;99.90
48860;DHT22;34679;51.436;-2.518;2023-05-02T06:07:36;10.60;99.90
48860;DHT22;34679;51.436;-2.518;2023-05-02T06:10:02;10.60;99.90
48860;DHT22;34679;51.436;-2.518;2023-05-02T06:12:27;10.40;99.90
48860;DHT22;34679;51.436;-2.518;2023-05-02T06:14:53;10.30;99.90
48860;DHT22;34679;51.436;-2.518;2023-05-02T06:17:19;10.50;99.90
48860;DHT22;34679;51.436;-2.518;2023-05-02T06:19:45;10.70;99.90
48860;DHT22;34679;51.436;-2.518;2023-05-02T06:22:11;10.60;99.90
48860;DHT22;34679;51.436;-2.518;2023-05-02T06:24:38;10.50;99.90
48860;DHT22;34679;51.436;-2.518;2023-05-02T06:27:04;10.70;99.90
48860;DHT22;34679;51.436;-2.518;2023-05-02T06:29:29;10.50;99.90
48860;DHT22;34679;51.436;-2.518;2023-05-02T06:31:55;10.60;99.90
48860;DHT22;34679;51.436;-2.518;2023-05-02T06:34:21;10.70;99.90
48860;DHT22;34679;51.436;-2.518;2023-05-02T06:36:47;10.50;99.90
48860;DHT22;34679;51.436;-2.518;2023-05-02T06:39:13;10.70;99.90
48860;DHT22;34679;51.436;-2.518;2023-05-02T06:41:38;10.70;99.90
48860;DHT22;34679;51.436;-2.518;2023-05-02T06:44:04;10.90;99.90
48860;DHT22;34679;51.436;-2.518;2023-05-02T06:46:30;10.90;99.90
48860;DHT22;34679;51.436;-2.518;2023-05-02T06:48:56;10.90;99.90
48860;DHT22;34679;51.436;-2.518;2023-05-02T06:51:22;10.80;99.90
48860;DHT22;34679;51.436;-2.518;2023-05-02T06:53:47;10.70;99.90
48860;DHT22;34679;51.436;-2.518;2023-05-02T06:56:13;10.60;99.90
48860;DHT22;34679;51.436;-2.518;2023-05-02T06:58:39;10.60;99.90
48860;DHT22;34679;51.436;-2.518;2023-05-02T07:01:05;10.60;99.90
48860;DHT22;34679;51.436;-2.518;2023-05-02T07:03:30;10.70;99.90
48860;DHT22;34679;51.436;-2.518;2023-05-02T07:05:57;10.80;99.90
48860;DHT22;34679;51.436;-2.518;2023-05-02T07:08:23;11.00;99.90
48860;DHT22;34679;51.436;-2.518;2023-05-02T07:10:49;11.10;99.90
48860;DHT22;34679;51.436;-2.518;2023-05-02T07:13:15;11.10;99.90
48860;DHT22;34679;51.436;-2.518;2023-05-02T07:15:41;11.20;99.90
48860;DHT22;34679;51.436;-2.518;2023-05-02T07:18:07;11.10;99.90
48860;DHT22;34679;51.436;-2.518;2023-05-02T07:20:33;11.00;99.90
48860;DHT22;34679;51.436;-2.518;2023-05-02T07:22:59;11.10;99.90
48860;DHT22;34679;51.436;-2.518;2023-05-02T07:25:24;11.00;99.90
48860;DHT22;34679;51.436;-2.518;2023-05-02T07:27:50;11.00;99.90
48860;DHT22;34679;51.436;-2.518;2023-05-02T07:30:16;11.00;99.90
48860;DHT22;34679;51.436;-2.518;2023-05-02T07:32:41;11.00;99.90
48860;DHT22;34679;51.436;-2.518;2023-05-02T07:35:08;11.00;99.90
48860;DHT22;34679;51.436;-2.518;2023-05-02T07:37:34;11.10;99.90
48860;DHT22;34679;51.436;-2.518;2023-05-02T07:40:00;11.00;99.90
48860;DHT22;34679;51.436;-2.518;2023-05-02T07:42:30;11.20;99.90
48860;DHT22;34679;51.436;-2.518;2023-05-02T07:44:56;11.40;99.90
48860;DHT22;34679;51.436;-2.518;2023-05-02T07:47:22;11.50;99.90
48860;DHT22;34679;51.436;-2.518;2023-05-02T07:49:54;11.50;99.90
48860;DHT22;34679;51.436;-2.518;2023-05-02T07:52:21;11.40;99.90
48860;DHT22;34679;51.436;-2.518;2023-05-02T07:54:47;11.30;99.90
48860;DHT22;34679;51.436;-2.518;2023-05-02T07:57:14;11.10;99.90
48860;DHT22;34679;51.436;-2.518;2023-05-02T07:59:40;11.00;99.90
48860;DHT22;34679;51.436;-2.518;2023-05-02T08:02:06;10.90;99.90
48860;DHT22;34679;51.436;-2.518;2023-05-02T08:04:32;11.10;99.90
48860;DHT22;34679;51.436;-2.518;2023-05-02T08:06:57;11.20;99.90
48860;DHT22;34679;51.436;-2.518;2023-05-02T08:09:23;11.20;99.90
48860;DHT22;34679;51.436;-2.518;2023-05-02T08:11:49;11.20;99.90
48860;DHT22;34679;51.436;-2.518;2023-05-02T08:14:15;11.30;99.90
48860;DHT22;34679;51.436;-2.518;2023-05-02T08:16:41;11.50;99.90
48860;DHT22;34679;51.436;-2.518;2023-05-02T08:19:07;11.50;99.90
48860;DHT22;34679;51.436;-2.518;2023-05-02T08:21:33;11.60;99.90
48860;DHT22;34679;51.436;-2.518;2023-05-02T08:23:58;11.70;99.90
48860;DHT22;34679;51.436;-2.518;2023-05-02T08:26:25;11.80;99.90
48860;DHT22;34679;51.436;-2.518;2023-05-02T08:28:51;11.80;99.90
48860;DHT22;34679;51.436;-2.518;2023-05-02T08:31:17;11.90;99.90
48860;DHT22;34679;51.436;-2.518;2023-05-02T08:33:43;11.80;99.90
48860;DHT22;34679;51.436;-2.518;2023-05-02T08:36:14;11.70;99.90
48860;DHT22;34679;51.436;-2.518;2023-05-02T08:38:41;11.70;99.90
48860;DHT22;34679;51.436;-2.518;2023-05-02T08:43:38;11.80;99.90
48860;DHT22;34679;51.436;-2.518;2023-05-02T08:46:05;11.90;99.90
48860;DHT22;34679;51.436;-2.518;2023-05-02T08:48:41;12.00;99.90
48860;DHT22;34679;51.436;-2.518;2023-05-02T08:51:11;12.20;99.90
48860;DHT22;34679;51.436;-2.518;2023-05-02T08:53:39;12.10;99.90
48860;DHT22;34679;51.436;-2.518;2023-05-02T08:56:09;12.40;99.90
48860;DHT22;34679;51.436;-2.518;2023-05-02T08:58:39;12.50;99.90
48860;DHT22;34679;51.436;-2.518;2023-05-02T09:01:16;12.50;99.90
48860;DHT22;34679;51.436;-2.518;2023-05-02T09:03:44;12.60;99.90
48860;DHT22;34679;51.436;-2.518;2023-05-02T09:06:12;12.70;99.90
48860;DHT22;34679;51.436;-2.518;2023-05-02T09:08:39;12.70;99.90
48860;DHT22;34679;51.436;-2.518;2023-05-02T09:11:07;12.80;99.90
48860;DHT22;34679;51.436;-2.518;2023-05-02T09:13:41;12.90;99.90
48860;DHT22;34679;51.436;-2.518;2023-05-02T09:16:21;12.90;99.90
48860;DHT22;34679;51.436;-2.518;2023-05-02T09:18:49;13.00;99.90
48860;DHT22;34679;51.436;-2.518;2023-05-02T09:21:22;13.00;99.90
48860;DHT22;34679;51.436;-2.518;2023-05-02T09:23:50;13.00;99.90
48860;DHT22;34679;51.436;-2.518;2023-05-02T09:26:21;12.80;99.90
48860;DHT22;34679;51.436;-2.518;2023-05-02T09:28:49;12.90;99.90
48860;DHT22;34679;51.436;-2.518;2023-05-02T09:31:34;12.80;99.90
48860;DHT22;34679;51.436;-2.518;2023-05-02T09:36:43;12.70;99.90
48860;DHT22;34679;51.436;-2.518;2023-05-02T09:39:12;13.00;99.90
48860;DHT22;34679;51.436;-2.518;2023-05-02T09:41:43;13.20;99.90
48860;DHT22;34679;51.436;-2.518;2023-05-02T09:44:10;13.20;99.90
48860;DHT22;34679;51.436;-2.518;2023-05-02T09:46:41;13.50;99.90
48860;DHT22;34679;51.436;-2.518;2023-05-02T09:49:07;13.70;99.90
48860;DHT22;34679;51.436;-2.518;2023-05-02T09:51:36;13.90;99.90
48860;DHT22;34679;51.436;-2.518;2023-05-02T09:54:02;14.10;99.90
48860;DHT22;34679;51.436;-2.518;2023-05-02T09:56:28;14.30;99.90
48860;DHT22;34679;51.436;-2.518;2023-05-02T09:59:14;14.60;99.90
48860;DHT22;34679;51.436;-2.518;2023-05-02T10:01:41;14.90;99.90
48860;DHT22;34679;51.436;-2.518;2023-05-02T10:04:11;14.80;99.90
48860;DHT22;34679;51.436;-2.518;2023-05-02T10:06:44;14.80;99.90
48860;DHT22;34679;51.436;-2.518;2023-05-02T10:09:10;14.70;99.90
48860;DHT22;34679;51.436;-2.518;2023-05-02T10:11:38;14.60;99.90
48860;DHT22;34679;51.436;-2.518;2023-05-02T10:14:10;14.80;99.90
48860;DHT22;34679;51.436;-2.518;2023-05-02T10:16:54;14.70;99.90
48860;DHT22;34679;51.436;-2.518;2023-05-02T10:19:37;14.80;99.90
48860;DHT22;34679;51.436;-2.518;2023-05-02T10:22:06;14.70;99.90
48860;DHT22;34679;51.436;-2.518;2023-05-02T10:24:32;14.80;99.90
48860;DHT22;34679;51.436;-2.518;2023-05-02T10:26:58;14.60;99.90
48860;DHT22;34679;51.436;-2.518;2023-05-02T10:29:28;14.60;99.90
48860;DHT22;34679;51.436;-2.518;2023-05-02T10:31:57;14.80;99.90
48860;DHT22;34679;51.436;-2.518;2023-05-02T10:34:26;14.80;99.90
48860;DHT22;34679;51.436;-2.518;2023-05-02T10:36:54;14.90;99.90
48860;DHT22;34679;51.436;-2.518;2023-05-02T10:39:20;14.90;99.90
48860;DHT22;34679;51.436;-2.518;2023-05-02T10:41:51;14.90;99.90
48860;DHT22;34679;51.436;-2.518;2023-05-02T10:44:39;15.10;99.90
48860;DHT22;34679;51.436;-2.518;2023-05-02T10:47:22;15.30;99.90
48860;DHT22;34679;51.436;-2.518;2023-05-02T10:50:00;15.50;99.90
48860;DHT22;34679;51.436;-2.518;2023-05-02T10:52:33;15.70;99.90
48860;DHT22;34679;51.436;-2.518;2023-05-02T10:55:21;15.90;99.90
48860;DHT22;34679;51.436;-2.518;2023-05-02T11:00:26;16.30;99.90
48860;DHT22;34679;51.436;-2.518;2023-05-02T11:02:52;16.40;99.90
48860;DHT22;34679;51.436;-2.518;2023-05-02T11:05:18;16.50;99.90
48860;DHT22;34679;51.436;-2.518;2023-05-02T11:07:43;16.40;99.90
48860;DHT22;34679;51.436;-2.518;2023-05-02T11:12:54;16.30;99.90
48860;DHT22;34679;51.436;-2.518;2023-05-02T11:17:59;16.60;99.90
48860;DHT22;34679;51.436;-2.518;2023-05-02T11:20:29;16.70;99.90
48860;DHT22;34679;51.436;-2.518;2023-05-02T11:25:42;17.30;99.90
48860;DHT22;34679;51.436;-2.518;2023-05-02T11:34:01;17.70;99.90
48860;DHT22;34679;51.436;-2.518;2023-05-02T11:36:28;17.80;99.90
48860;DHT22;34679;51.436;-2.518;2023-05-02T11:38:54;17.90;99.90
48860;DHT22;34679;51.436;-2.518;2023-05-02T11:41:20;17.90;99.90
48860;DHT22;34679;51.436;-2.518;2023-05-02T11:43:46;17.60;99.90
48860;DHT22;34679;51.436;-2.518;2023-05-02T11:46:11;17.60;99.90
48860;DHT22;34679;51.436;-2.518;2023-05-02T11:48:37;17.60;99.90
48860;DHT22;34679;51.436;-2.518;2023-05-02T11:51:03;17.50;99.90
48860;DHT22;34679;51.436;-2.518;2023-05-02T11:53:31;17.30;99.90
48860;DHT22;34679;51.436;-2.518;2023-05-02T11:55:59;17.10;99.90
48860;DHT22;34679;51.436;-2.518;2023-05-02T11:58:27;17.50;99.90
48860;DHT22;34679;51.436;-2.518;2023-05-02T12:00:58;17.70;99.90
48860;DHT22;34679;51.436;-2.518;2023-05-02T12:03:29;17.80;99.90
48860;DHT22;34679;51.436;-2.518;2023-05-02T12:05:56;17.90;99.90
48860;DHT22;34679;51.436;-2.518;2023-05-02T12:08:27;17.80;99.90
48860;DHT22;34679;51.436;-2.518;2023-05-02T12:10:55;18.00;99.90
48860;DHT22;34679;51.436;-2.518;2023-05-02T12:13:23;18.60;99.90
48860;DHT22;34679;51.436;-2.518;2023-05-02T12:15:52;18.70;99.90
48860;DHT22;34679;51.436;-2.518;2023-05-02T12:18:19;18.90;99.90
48860;DHT22;34679;51.436;-2.518;2023-05-02T12:20:49;19.00;99.90
48860;DHT22;34679;51.436;-2.518;2023-05-02T12:23:16;19.40;99.90
48860;DHT22;34679;51.436;-2.518;2023-05-02T12:25:42;19.60;99.90
48860;DHT22;34679;51.436;-2.518;2023-05-02T12:28:09;19.60;99.90
48860;DHT22;34679;51.436;-2.518;2023-05-02T12:30:35;19.50;99.90
48860;DHT22;34679;51.436;-2.518;2023-05-02T12:33:03;19.60;99.90
48860;DHT22;34679;51.436;-2.518;2023-05-02T12:35:30;19.70;99.90
48860;DHT22;34679;51.436;-2.518;2023-05-02T12:38:28;19.80;99.90
48860;DHT22;34679;51.436;-2.518;2023-05-02T12:40:54;19.70;99.90
48860;DHT22;34679;51.436;-2.518;2023-05-02T12:43:23;19.60;99.90
48860;DHT22;34679;51.436;-2.518;2023-05-02T12:45:49;19.70;99.90
48860;DHT22;34679;51.436;-2.518;2023-05-02T12:50:44;19.60;99.90
48860;DHT22;34679;51.436;-2.518;2023-05-02T12:53:10;19.40;99.90
48860;DHT22;34679;51.436;-2.518;2023-05-02T12:55:35;19.70;99.90
48860;DHT22;34679;51.436;-2.518;2023-05-02T12:58:09;19.90;99.90
48860;DHT22;34679;51.436;-2.518;2023-05-02T13:00:39;20.10;99.90
48860;DHT22;34679;51.436;-2.518;2023-05-02T13:03:06;20.20;99.90
48860;DHT22;34679;51.436;-2.518;2023-05-02T13:05:32;20.40;99.90
48860;DHT22;34679;51.436;-2.518;2023-05-02T13:07:58;20.60;99.90
48860;DHT22;34679;51.436;-2.518;2023-05-02T13:10:25;20.60;99.90
48860;DHT22;34679;51.436;-2.518;2023-05-02T13:12:51;20.50;99.90
48860;DHT22;34679;51.436;-2.518;2023-05-02T13:15:17;20.50;99.90
48860;DHT22;34679;51.436;-2.518;2023-05-02T13:17:43;20.20;99.90
48860;DHT22;34679;51.436;-2.518;2023-05-02T13:20:10;20.20;99.90
48860;DHT22;34679;51.436;-2.518;2023-05-02T13:22:37;19.80;99.90
48860;DHT22;34679;51.436;-2.518;2023-05-02T13:25:03;19.50;99.90
48860;DHT22;34679;51.436;-2.518;2023-05-02T13:27:29;19.20;99.90
48860;DHT22;34679;51.436;-2.518;2023-05-02T13:29:55;19.00;99.90
48860;DHT22;34679;51.436;-2.518;2023-05-02T13:32:20;19.20;99.90
48860;DHT22;34679;51.436;-2.518;2023-05-02T13:34:47;19.40;99.90
48860;DHT22;34679;51.436;-2.518;2023-05-02T13:37:12;19.70;99.90
48860;DHT22;34679;51.436;-2.518;2023-05-02T13:39:38;19.60;99.90
48860;DHT22;34679;51.436;-2.518;2023-05-02T13:42:05;19.60;99.90
48860;DHT22;34679;51.436;-2.518;2023-05-02T13:44:31;19.80;99.90
48860;DHT22;34679;51.436;-2.518;2023-05-02T13:46:57;19.90;99.90
48860;DHT22;34679;51.436;-2.518;2023-05-02T13:49:23;20.10;99.90
48860;DHT22;34679;51.436;-2.518;2023-05-02T13:51:49;20.10;99.90
48860;DHT22;34679;51.436;-2.518;2023-05-02T13:54:15;20.00;99.90
48860;DHT22;34679;51.436;-2.518;2023-05-02T13:56:41;19.70;99.90
48860;DHT22;34679;51.436;-2.518;2023-05-02T13:59:07;19.80;99.90
48860;DHT22;34679;51.436;-2.518;2023-05-02T14:01:33;19.80;99.90
48860;DHT22;34679;51.436;-2.518;2023-05-02T14:03:59;19.90;99.90
48860;DHT22;34679;51.436;-2.518;2023-05-02T14:06:31;19.80;99.90
48860;DHT22;34679;51.436;-2.518;2023-05-02T14:08:57;19.70;99.90
48860;DHT22;34679;51.436;-2.518;2023-05-02T14:11:23;19.70;99.90
48860;DHT22;34679;51.436;-2.518;2023-05-02T14:13:49;19.50;99.90
48860;DHT22;34679;51.436;-2.518;2023-05-02T14:16:15;19.50;99.90
48860;DHT22;34679;51.436;-2.518;2023-05-02T14:18:40;19.20;99.90
48860;DHT22;34679;51.436;-2.518;2023-05-02T14:21:06;19.20;99.90
48860;DHT22;34679;51.436;-2.518;2023-05-02T14:23:32;19.30;99.90
48860;DHT22;34679;51.436;-2.518;2023-05-02T14:25:58;19.30;99.90
48860;DHT22;34679;51.436;-2.518;2023-05-02T14:28:24;19.20;99.90
48860;DHT22;34679;51.436;-2.518;2023-05-02T14:30:51;19.00;99.90
48860;DHT22;34679;51.436;-2.518;2023-05-02T14:33:16;19.10;99.90
48860;DHT22;34679;51.436;-2.518;2023-05-02T14:35:42;19.30;99.90
48860;DHT22;34679;51.436;-2.518;2023-05-02T14:38:08;19.40;99.90
48860;DHT22;34679;51.436;-2.518;2023-05-02T14:40:34;19.60;99.90
48860;DHT22;34679;51.436;-2.518;2023-05-02T14:43:00;19.70;99.90
48860;DHT22;34679;51.436;-2.518;2023-05-02T14:45:26;20.10;99.90
48860;DHT22;34679;51.436;-2.518;2023-05-02T14:47:51;20.20;99.90
48860;DHT22;34679;51.436;-2.518;2023-05-02T14:50:17;20.10;99.90
48860;DHT22;34679;51.436;-2.518;2023-05-02T14:52:43;20.00;99.90
48860;DHT22;34679;51.436;-2.518;2023-05-02T14:55:12;19.70;99.90
48860;DHT22;34679;51.436;-2.518;2023-05-02T14:57:38;19.70;99.90
48860;DHT22;34679;51.436;-2.518;2023-05-02T15:00:04;19.80;99.90
48860;DHT22;34679;51.436;-2.518;2023-05-02T15:02:34;19.90;99.90
48860;DHT22;34679;51.436;-2.518;2023-05-02T15:05:01;19.90;99.90
48860;DHT22;34679;51.436;-2.518;2023-05-02T15:07:27;19.90;99.90
48860;DHT22;34679;51.436;-2.518;2023-05-02T15:09:53;19.70;99.90
48860;DHT22;34679;51.436;-2.518;2023-05-02T15:12:19;19.60;99.90
48860;DHT22;34679;51.436;-2.518;2023-05-02T15:14:44;19.50;99.90
48860;DHT22;34679;51.436;-2.518;2023-05-02T15:17:10;19.50;99.90
48860;DHT22;34679;51.436;-2.518;2023-05-02T15:19:36;19.50;99.90
48860;DHT22;34679;51.436;-2.518;2023-05-02T15:22:01;19.50;99.90
48860;DHT22;34679;51.436;-2.518;2023-05-02T15:24:27;19.50;99.90
48860;DHT22;34679;51.436;-2.518;2023-05-02T15:26:53;19.60;99.90
48860;DHT22;34679;51.436;-2.518;2023-05-02T15:29:19;19.70;99.90
48860;DHT22;34679;51.436;-2.518;2023-05-02T15:31:44;19.70;99.90
48860;DHT22;34679;51.436;-2.518;2023-05-02T15:34:10;19.90;99.90
48860;DHT22;34679;51.436;-2.518;2023-05-02T15:36:36;19.80;99.90
48860;DHT22;34679;51.436;-2.518;2023-05-02T15:39:02;19.90;99.90
48860;DHT22;34679;51.436;-2.518;2023-05-02T15:41:28;19.70;99.90
48860;DHT22;34679;51.436;-2.518;2023-05-02T15:43:54;19.90;99.90
48860;DHT22;34679;51.436;-2.518;2023-05-02T15:46:21;20.10;99.90
48860;DHT22;34679;51.436;-2.518;2023-05-02T15:48:46;20.30;99.90
48860;DHT22;34679;51.436;-2.518;2023-05-02T15:51:12;20.60;99.90
48860;DHT22;34679;51.436;-2.518;2023-05-02T15:53:38;20.50;99.90
48860;DHT22;34679;51.436;-2.518;2023-05-02T15:56:13;20.50;99.90
48860;DHT22;34679;51.436;-2.518;2023-05-02T15:58:39;20.40;99.90
48860;DHT22;34679;51.436;-2.518;2023-05-02T16:01:05;20.30;99.90
48860;DHT22;34679;51.436;-2.518;2023-05-02T16:03:31;20.00;99.90
48860;DHT22;34679;51.436;-2.518;2023-05-02T16:05:58;19.90;99.90
48860;DHT22;34679;51.436;-2.518;2023-05-02T16:08:25;19.70;99.90
48860;DHT22;34679;51.436;-2.518;2023-05-02T16:10:51;19.50;99.90